Terminal Aerodrome Forecast
Issued by NWS

Current Version | Previous Version | Text Only | Print | Product List | Glossary Off
Versions: 1 2 3 4 5 6 7 8 9 10 11 12 13 14 15 16 17 18 19 20 21

000
FTUS41 KILN 081733 AAA
TAFLCK
TAF AMD
KLCK 081733Z 0818/0918 27015G22KT P6SM OVC028
     FM090000 27014KT P6SM OVC025
     FM090900 26010KT P6SM OVC018
     FM091500 26010KT P6SM OVC022
      AMD NOT SKED=

USA.gov is the U.S. government's official web portal to all federal, state and local government web resources and services.